sensor_id;sensor_type;location;lat;lon;timestamp;pressure;altitude;pressure_sealevel;temperature;humidity
23899;BME280;20544;50.018;20.010;2023-01-26T00:00:11;99566.54;;;0.41;100.00
23899;BME280;20544;50.018;20.010;2023-01-26T00:03:31;99563.23;;;0.24;100.00
23899;BME280;20544;50.018;20.010;2023-01-26T00:06:48;99561.27;;;0.28;100.00
23899;BME280;20544;50.018;20.010;2023-01-26T00:10:05;99553.98;;;0.33;100.00
23899;BME280;20544;50.018;20.010;2023-01-26T00:13:23;99550.23;;;0.37;100.00
23899;BME280;20544;50.018;20.010;2023-01-26T00:16:39;99540.57;;;0.25;100.00
23899;BME280;20544;50.018;20.010;2023-01-26T00:19:58;99531.94;;;0.10;100.00
23899;BME280;20544;50.018;20.010;2023-01-26T00:23:14;99534.91;;;0.18;100.00
23899;BME280;20544;50.018;20.010;2023-01-26T00:26:33;99535.34;;;0.25;100.00
23899;BME280;20544;50.018;20.010;2023-01-26T00:29:51;99526.30;;;0.30;100.00
23899;BME280;20544;50.018;20.010;2023-01-26T00:33:08;99528.53;;;0.37;100.00
23899;BME280;20544;50.018;20.010;2023-01-26T00:36:24;99524.05;;;0.39;100.00
23899;BME280;20544;50.018;20.010;2023-01-26T00:39:43;99518.91;;;0.37;100.00
23899;BME280;20544;50.018;20.010;2023-01-26T00:42:59;99508.58;;;0.36;100.00
23899;BME280;20544;50.018;20.010;2023-01-26T00:46:16;99508.58;;;0.36;100.00
23899;BME280;20544;50.018;20.010;2023-01-26T00:49:32;99518.09;;;0.37;100.00
23899;BME280;20544;50.018;20.010;2023-01-26T00:52:49;99508.79;;;0.33;100.00
23899;BME280;20544;50.018;20.010;2023-01-26T00:56:10;99504.39;;;0.33;100.00
23899;BME280;20544;50.018;20.010;2023-01-26T00:59:27;99502.61;;;0.34;100.00
23899;BME280;20544;50.018;20.010;2023-01-26T01:02:45;99491.59;;;0.15;100.00
23899;BME280;20544;50.018;20.010;2023-01-26T01:06:02;99488.77;;;0.19;100.00
23899;BME280;20544;50.018;20.010;2023-01-26T01:09:19;99484.52;;;0.18;100.00
23899;BME280;20544;50.018;20.010;2023-01-26T01:12:36;99495.27;;;0.26;100.00
23899;BME280;20544;50.018;20.010;2023-01-26T01:15:52;99494.23;;;0.28;100.00
23899;BME280;20544;50.018;20.010;2023-01-26T01:19:09;99494.34;;;0.27;100.00
23899;BME280;20544;50.018;20.010;2023-01-26T01:22:27;99496.02;;;0.28;100.00
23899;BME280;20544;50.018;20.010;2023-01-26T01:25:45;99479.52;;;0.27;100.00
23899;BME280;20544;50.018;20.010;2023-01-26T01:29:03;99479.08;;;0.21;100.00
23899;BME280;20544;50.018;20.010;2023-01-26T01:32:20;99473.50;;;0.12;100.00
23899;BME280;20544;50.018;20.010;2023-01-26T01:35:37;99465.67;;;0.12;100.00
23899;BME280;20544;50.018;20.010;2023-01-26T01:38:53;99469.97;;;0.13;100.00
23899;BME280;20544;50.018;20.010;2023-01-26T01:42:10;99469.53;;;0.07;100.00
23899;BME280;20544;50.018;20.010;2023-01-26T01:45:42;99471.60;;;0.02;100.00
23899;BME280;20544;50.018;20.010;2023-01-26T01:49:02;99466.48;;;0.00;100.00
23899;BME280;20544;50.018;20.010;2023-01-26T01:52:25;99466.48;;;0.00;100.00
23899;BME280;20544;50.018;20.010;2023-01-26T01:55:43;99461.06;;;0.03;100.00
23899;BME280;20544;50.018;20.010;2023-01-26T01:59:00;99464.42;;;0.05;100.00
23899;BME280;20544;50.018;20.010;2023-01-26T02:02:18;99465.53;;;0.01;100.00
23899;BME280;20544;50.018;20.010;2023-01-26T02:05:38;99465.27;;;-0.09;100.00
23899;BME280;20544;50.018;20.010;2023-01-26T02:09:00;99459.13;;;-0.08;100.00
23899;BME280;20544;50.018;20.010;2023-01-26T02:12:22;99461.09;;;-0.11;100.00
23899;BME280;20544;50.018;20.010;2023-01-26T02:15:41;99457.38;;;-0.07;100.00
23899;BME280;20544;50.018;20.010;2023-01-26T02:18:57;99449.83;;;-0.12;100.00
23899;BME280;20544;50.018;20.010;2023-01-26T02:22:19;99449.55;;;-0.07;100.00
23899;BME280;20544;50.018;20.010;2023-01-26T02:25:41;99443.79;;;-0.12;100.00
23899;BME280;20544;50.018;20.010;2023-01-26T02:29:02;99436.58;;;-0.09;100.00
23899;BME280;20544;50.018;20.010;2023-01-26T02:32:23;99432.99;;;-0.21;100.00
23899;BME280;20544;50.018;20.010;2023-01-26T02:35:40;99433.75;;;-0.19;100.00
23899;BME280;20544;50.018;20.010;2023-01-26T02:39:03;99420.13;;;-0.24;100.00
23899;BME280;20544;50.018;20.010;2023-01-26T02:42:33;99427.03;;;-0.23;100.00
23899;BME280;20544;50.018;20.010;2023-01-26T02:45:53;99418.38;;;-0.23;100.00
23899;BME280;20544;50.018;20.010;2023-01-26T02:49:11;99421.74;;;-0.21;100.00
23899;BME280;20544;50.018;20.010;2023-01-26T02:52:42;99416.59;;;-0.23;100.00
23899;BME280;20544;50.018;20.010;2023-01-26T02:56:00;99420.89;;;-0.22;100.00
23899;BME280;20544;50.018;20.010;2023-01-26T02:59:17;99421.74;;;-0.21;100.00
23899;BME280;20544;50.018;20.010;2023-01-26T03:02:33;99419.70;;;-0.30;100.00
23899;BME280;20544;50.018;20.010;2023-01-26T03:05:53;99418.23;;;-0.35;100.00
23899;BME280;20544;50.018;20.010;2023-01-26T03:09:11;99412.55;;;-0.41;100.00
23899;BME280;20544;50.018;20.010;2023-01-26T03:12:29;99412.55;;;-0.41;100.00
23899;BME280;20544;50.018;20.010;2023-01-26T03:15:45;99416.45;;;-0.34;100.00
23899;BME280;20544;50.018;20.010;2023-01-26T03:19:08;99398.97;;;-0.46;100.00
23899;BME280;20544;50.018;20.010;2023-01-26T03:22:42;99401.57;;;-0.46;100.00
23899;BME280;20544;50.018;20.010;2023-01-26T03:26:14;99411.28;;;-0.48;100.00
23899;BME280;20544;50.018;20.010;2023-01-26T03:29:45;99408.67;;;-0.48;100.00
23899;BME280;20544;50.018;20.010;2023-01-26T03:33:02;99408.84;;;-0.52;100.00
23899;BME280;20544;50.018;20.010;2023-01-26T03:36:19;99399.27;;;-0.51;100.00
23899;BME280;20544;50.018;20.010;2023-01-26T03:39:36;99401.78;;;-0.50;100.00
23899;BME280;20544;50.018;20.010;2023-01-26T03:43:13;99404.28;;;-0.48;100.00
23899;BME280;20544;50.018;20.010;2023-01-26T03:46:44;99385.39;;;-0.52;100.00
23899;BME280;20544;50.018;20.010;2023-01-26T03:50:18;99392.72;;;-0.44;100.00
23899;BME280;20544;50.018;20.010;2023-01-26T03:53:48;99383.33;;;-0.46;100.00
23899;BME280;20544;50.018;20.010;2023-01-26T03:57:19;99377.28;;;-0.47;100.00
23899;BME280;20544;50.018;20.010;2023-01-26T04:00:35;99383.64;;;-0.51;100.00
23899;BME280;20544;50.018;20.010;2023-01-26T04:03:52;99384.19;;;-0.60;100.00
23899;BME280;20544;50.018;20.010;2023-01-26T04:07:26;99381.75;;;-0.49;100.00
23899;BME280;20544;50.018;20.010;2023-01-26T04:10:56;99391.35;;;-0.50;100.00
23899;BME280;20544;50.018;20.010;2023-01-26T04:14:14;99382.67;;;-0.50;100.00
23899;BME280;20544;50.018;20.010;2023-01-26T04:17:48;99365.19;;;-0.48;100.00
23899;BME280;20544;50.018;20.010;2023-01-26T04:21:19;99373.11;;;-0.50;100.00
23899;BME280;20544;50.018;20.010;2023-01-26T04:24:43;99366.86;;;-0.47;100.00
23899;BME280;20544;50.018;20.010;2023-01-26T04:27:59;99350.47;;;-0.49;100.00
23899;BME280;20544;50.018;20.010;2023-01-26T04:31:15;99349.44;;;-0.46;100.00
23899;BME280;20544;50.018;20.010;2023-01-26T04:34:33;99352.80;;;-0.44;100.00
23899;BME280;20544;50.018;20.010;2023-01-26T04:37:51;99350.73;;;-0.39;100.00
23899;BME280;20544;50.018;20.010;2023-01-26T04:41:08;99344.09;;;-0.30;100.00
23899;BME280;20544;50.018;20.010;2023-01-26T04:44:25;99346.12;;;-0.21;100.00
23899;BME280;20544;50.018;20.010;2023-01-26T04:47:42;99345.08;;;-0.19;100.00
23899;BME280;20544;50.018;20.010;2023-01-26T04:51:01;99342.13;;;-0.27;100.00
23899;BME280;20544;50.018;20.010;2023-01-26T04:54:19;99331.73;;;-0.41;100.00
23899;BME280;20544;50.018;20.010;2023-01-26T04:57:38;99327.38;;;-0.41;100.00
23899;BME280;20544;50.018;20.010;2023-01-26T05:00:56;99330.41;;;-0.34;100.00
23899;BME280;20544;50.018;20.010;2023-01-26T05:04:14;99331.16;;;-0.32;100.00
23899;BME280;20544;50.018;20.010;2023-01-26T05:07:32;99329.88;;;-0.39;100.00
23899;BME280;20544;50.018;20.010;2023-01-26T05:10:49;99334.73;;;-0.47;100.00
23899;BME280;20544;50.018;20.010;2023-01-26T05:14:09;99328.59;;;-0.46;100.00
23899;BME280;20544;50.018;20.010;2023-01-26T05:17:47;99335.87;;;-0.52;100.00
23899;BME280;20544;50.018;20.010;2023-01-26T05:21:15;99334.45;;;-0.43;100.00
23899;BME280;20544;50.018;20.010;2023-01-26T05:24:33;99332.38;;;-0.38;100.00
23899;BME280;20544;50.018;20.010;2023-01-26T05:28:04;99334.83;;;-0.49;100.00
23899;BME280;20544;50.018;20.010;2023-01-26T05:31:22;99337.44;;;-0.49;100.00
23899;BME280;20544;50.018;20.010;2023-01-26T05:34:38;99341.08;;;-0.52;100.00
23899;BME280;20544;50.018;20.010;2023-01-26T05:37:55;99339.14;;;-0.62;100.00
23899;BME280;20544;50.018;20.010;2023-01-26T05:41:12;99341.94;;;-0.51;100.00
23899;BME280;20544;50.018;20.010;2023-01-26T05:44:31;99340.54;;;-0.57;100.00
23899;BME280;20544;50.018;20.010;2023-01-26T05:47:49;99334.58;;;-0.59;100.00
23899;BME280;20544;50.018;20.010;2023-01-26T05:51:06;99329.47;;;-0.60;100.00
23899;BME280;20544;50.018;20.010;2023-01-26T05:54:22;99335.22;;;-0.55;100.00
23899;BME280;20544;50.018;20.010;2023-01-26T05:57:40;99332.72;;;-0.57;100.00
23899;BME280;20544;50.018;20.010;2023-01-26T06:00:56;99327.30;;;-0.54;100.00
23899;BME280;20544;50.018;20.010;2023-01-26T06:04:14;99332.44;;;-0.52;100.00
23899;BME280;20544;50.018;20.010;2023-01-26T06:07:33;99324.52;;;-0.51;100.00
23899;BME280;20544;50.018;20.010;2023-01-26T06:10:59;99334.11;;;-0.51;100.00
23899;BME280;20544;50.018;20.010;2023-01-26T06:14:20;99326.73;;;-0.44;100.00
23899;BME280;20544;50.018;20.010;2023-01-26T06:17:38;99321.02;;;-0.37;100.00
23899;BME280;20544;50.018;20.010;2023-01-26T06:20:58;99319.58;;;-0.28;100.00
23899;BME280;20544;50.018;20.010;2023-01-26T06:24:15;99318.44;;;-0.24;100.00
23899;BME280;20544;50.018;20.010;2023-01-26T06:27:33;99322.44;;;-0.18;100.00
23899;BME280;20544;50.018;20.010;2023-01-26T06:30:55;99327.44;;;-0.15;100.00
23899;BME280;20544;50.018;20.010;2023-01-26T06:34:14;99335.08;;;-0.12;100.00
23899;BME280;20544;50.018;20.010;2023-01-26T06:37:31;99330.55;;;-0.23;100.00
23899;BME280;20544;50.018;20.010;2023-01-26T06:40:48;99322.66;;;-0.21;100.00
23899;BME280;20544;50.018;20.010;2023-01-26T06:44:05;99325.58;;;-0.13;100.00
23899;BME280;20544;50.018;20.010;2023-01-26T06:47:23;99329.22;;;-0.15;100.00
23899;BME280;20544;50.018;20.010;2023-01-26T06:50:41;99328.19;;;-0.13;100.00
23899;BME280;20544;50.018;20.010;2023-01-26T06:54:00;99327.36;;;-0.13;100.00
23899;BME280;20544;50.018;20.010;2023-01-26T06:57:22;99321.00;;;-0.09;100.00
23899;BME280;20544;50.018;20.010;2023-01-26T07:01:00;99325.17;;;-0.07;100.00
23899;BME280;20544;50.018;20.010;2023-01-26T07:04:17;99322.27;;;-0.02;100.00
23899;BME280;20544;50.018;20.010;2023-01-26T07:07:34;99325.52;;;0.02;100.00
23899;BME280;20544;50.018;20.010;2023-01-26T07:10:52;99321.98;;;0.03;100.00
23899;BME280;20544;50.018;20.010;2023-01-26T07:14:09;99322.69;;;0.05;100.00
23899;BME280;20544;50.018;20.010;2023-01-26T07:17:25;99318.41;;;0.04;100.00
23899;BME280;20544;50.018;20.010;2023-01-26T07:20:42;99316.25;;;0.10;100.00
23899;BME280;20544;50.018;20.010;2023-01-26T07:23:59;99325.75;;;0.11;100.00
23899;BME280;20544;50.018;20.010;2023-01-26T07:27:16;99322.40;;;0.09;100.00
23899;BME280;20544;50.018;20.010;2023-01-26T07:30:32;99315.31;;;0.11;100.00
23899;BME280;20544;50.018;20.010;2023-01-26T07:33:48;99322.58;;;0.06;100.00
23899;BME280;20544;50.018;20.010;2023-01-26T07:37:05;99313.19;;;0.04;100.00
23899;BME280;20544;50.018;20.010;2023-01-26T07:40:22;99310.56;;;-0.09;100.00
23899;BME280;20544;50.018;20.010;2023-01-26T07:43:41;99307.48;;;-0.29;100.00
23899;BME280;20544;50.018;20.010;2023-01-26T07:46:59;99307.08;;;-0.23;100.00
23899;BME280;20544;50.018;20.010;2023-01-26T07:50:16;99301.05;;;-0.23;100.00
23899;BME280;20544;50.018;20.010;2023-01-26T07:53:35;99303.02;;;-0.27;100.00
23899;BME280;20544;50.018;20.010;2023-01-26T07:56:54;99309.69;;;-0.23;100.00
23899;BME280;20544;50.018;20.010;2023-01-26T08:00:16;99307.43;;;-0.14;100.00
23899;BME280;20544;50.018;20.010;2023-01-26T08:03:34;99301.59;;;-0.05;100.00
23899;BME280;20544;50.018;20.010;2023-01-26T08:06:51;99304.55;;;0.03;100.00
23899;BME280;20544;50.018;20.010;2023-01-26T08:10:10;99306.11;;;0.06;100.00
23899;BME280;20544;50.018;20.010;2023-01-26T08:13:27;99308.94;;;0.03;100.00
23899;BME280;20544;50.018;20.010;2023-01-26T08:16:43;99309.55;;;0.06;100.00
23899;BME280;20544;50.018;20.010;2023-01-26T08:20:01;99310.09;;;0.11;100.00
23899;BME280;20544;50.018;20.010;2023-01-26T08:23:18;99307.48;;;0.11;100.00
23899;BME280;20544;50.018;20.010;2023-01-26T08:26:34;99310.17;;;0.10;100.00
23899;BME280;20544;50.018;20.010;2023-01-26T08:29:51;99302.34;;;0.10;100.00
23899;BME280;20544;50.018;20.010;2023-01-26T08:33:08;99304.14;;;0.09;100.00
23899;BME280;20544;50.018;20.010;2023-01-26T08:36:28;99304.88;;;0.11;100.00
23899;BME280;20544;50.018;20.010;2023-01-26T08:39:44;99302.27;;;0.11;100.00
23899;BME280;20544;50.018;20.010;2023-01-26T08:43:04;99300.15;;;0.04;100.00
23899;BME280;20544;50.018;20.010;2023-01-26T08:46:20;99304.14;;;0.09;100.00
23899;BME280;20544;50.018;20.010;2023-01-26T08:49:37;99306.74;;;0.09;100.00
23899;BME280;20544;50.018;20.010;2023-01-26T08:52:56;99311.74;;;0.12;100.00
23899;BME280;20544;50.018;20.010;2023-01-26T08:56:14;99311.03;;;0.10;100.00
23899;BME280;20544;50.018;20.010;2023-01-26T08:59:31;99303.20;;;0.10;100.00
23899;BME280;20544;50.018;20.010;2023-01-26T09:02:47;99316.77;;;0.15;100.00
23899;BME280;20544;50.018;20.010;2023-01-26T09:06:06;99315.09;;;0.14;100.00
23899;BME280;20544;50.018;20.010;2023-01-26T09:09:26;99311.55;;;0.15;100.00
23899;BME280;20544;50.018;20.010;2023-01-26T09:12:43;99319.68;;;0.11;100.00
23899;BME280;20544;50.018;20.010;2023-01-26T09:16:01;99319.38;;;0.15;100.00
23899;BME280;20544;50.018;20.010;2023-01-26T09:19:28;99312.48;;;0.14;100.00
23899;BME280;20544;50.018;20.010;2023-01-26T09:22:47;99317.81;;;0.13;100.00
23899;BME280;20544;50.018;20.010;2023-01-26T09:26:04;99315.09;;;0.14;100.00
23899;BME280;20544;50.018;20.010;2023-01-26T09:29:21;99302.16;;;0.13;100.00
23899;BME280;20544;50.018;20.010;2023-01-26T09:32:42;99307.91;;;0.18;100.00
23899;BME280;20544;50.018;20.010;2023-01-26T09:36:05;99300.82;;;0.20;100.00
23899;BME280;20544;50.018;20.010;2023-01-26T09:39:25;99300.82;;;0.20;100.00
23899;BME280;20544;50.018;20.010;2023-01-26T09:42:52;99293.18;;;0.17;100.00
23899;BME280;20544;50.018;20.010;2023-01-26T09:46:31;99288.70;;;0.19;100.00
23899;BME280;20544;50.018;20.010;2023-01-26T09:49:52;99294.41;;;-0.02;100.00
23899;BME280;20544;50.018;20.010;2023-01-26T09:53:17;99283.15;;;-0.02;100.00
23899;BME280;20544;50.018;20.010;2023-01-26T09:56:37;99279.97;;;-0.20;100.00
23899;BME280;20544;50.018;20.010;2023-01-26T09:59:58;99278.12;;;-0.05;100.00
23899;BME280;20544;50.018;20.010;2023-01-26T10:03:24;99271.56;;;0.02;100.00
23899;BME280;20544;50.018;20.010;2023-01-26T10:06:44;99261.98;;;0.03;100.00
23899;BME280;20544;50.018;20.010;2023-01-26T10:10:03;99267.16;;;-0.10;100.00
23899;BME280;20544;50.018;20.010;2023-01-26T10:13:23;99256.95;;;-0.13;100.00
23899;BME280;20544;50.018;20.010;2023-01-26T10:16:40;99265.00;;;-0.04;100.00
23899;BME280;20544;50.018;20.010;2023-01-26T10:20:05;99257.70;;;0.02;100.00
23899;BME280;20544;50.018;20.010;2023-01-26T10:23:27;99251.33;;;0.06;100.00
23899;BME280;20544;50.018;20.010;2023-01-26T10:26:45;99255.72;;;0.05;100.00
23899;BME280;20544;50.018;20.010;2023-01-26T10:30:03;99248.42;;;0.10;100.00
23899;BME280;20544;50.018;20.010;2023-01-26T10:33:24;99240.59;;;0.10;100.00
23899;BME280;20544;50.018;20.010;2023-01-26T10:36:45;99240.06;;;0.18;100.00
23899;BME280;20544;50.018;20.010;2023-01-26T10:40:03;99239.84;;;0.21;100.00
23899;BME280;20544;50.018;20.010;2023-01-26T10:43:22;99244.46;;;0.18;100.00
23899;BME280;20544;50.018;20.010;2023-01-26T10:46:43;99235.89;;;0.15;100.00
23899;BME280;20544;50.018;20.010;2023-01-26T10:50:19;99231.61;;;0.14;100.00
23899;BME280;20544;50.018;20.010;2023-01-26T10:53:37;99228.89;;;0.16;100.00
23899;BME280;20544;50.018;20.010;2023-01-26T10:56:56;99222.84;;;0.15;100.00
23899;BME280;20544;50.018;20.010;2023-01-26T11:00:26;99219.08;;;0.20;100.00
23899;BME280;20544;50.018;20.010;2023-01-26T11:03:43;99229.73;;;0.17;100.00
23899;BME280;20544;50.018;20.010;2023-01-26T11:07:25;99210.20;;;0.22;100.00
23899;BME280;20544;50.018;20.010;2023-01-26T11:10:51;99212.19;;;0.19;100.00
23899;BME280;20544;50.018;20.010;2023-01-26T11:14:18;99215.65;;;0.19;100.00
23899;BME280;20544;50.018;20.010;2023-01-26T11:17:38;99211.77;;;0.25;100.00
23899;BME280;20544;50.018;20.010;2023-01-26T11:21:02;99202.09;;;0.14;100.00
23899;BME280;20544;50.018;20.010;2023-01-26T11:24:25;99205.52;;;0.14;100.00
23899;BME280;20544;50.018;20.010;2023-01-26T11:27:52;99200.92;;;0.18;100.00
23899;BME280;20544;50.018;20.010;2023-01-26T11:31:20;99199.06;;;0.20;100.00
23899;BME280;20544;50.018;20.010;2023-01-26T11:34:46;99196.34;;;0.22;100.00
23899;BME280;20544;50.018;20.010;2023-01-26T11:38:15;99190.70;;;0.28;100.00
23899;BME280;20544;50.018;20.010;2023-01-26T11:41:46;99183.61;;;0.30;100.00
23899;BME280;20544;50.018;20.010;2023-01-26T11:45:18;99182.36;;;0.23;100.00
23899;BME280;20544;50.018;20.010;2023-01-26T11:48:44;99179.74;;;0.23;100.00
23899;BME280;20544;50.018;20.010;2023-01-26T11:52:10;99165.34;;;0.30;100.00
23899;BME280;20544;50.018;20.010;2023-01-26T11:55:36;99168.66;;;0.32;100.00
23899;BME280;20544;50.018;20.010;2023-01-26T11:58:57;99167.61;;;0.35;100.00
23899;BME280;20544;50.018;20.010;2023-01-26T12:02:25;99163.44;;;0.32;100.00
23899;BME280;20544;50.018;20.010;2023-01-26T12:05:45;99156.97;;;0.38;100.00
23899;BME280;20544;50.018;20.010;2023-01-26T12:09:02;99151.63;;;0.39;100.00
23899;BME280;20544;50.018;20.010;2023-01-26T12:12:28;99160.63;;;0.22;100.00
23899;BME280;20544;50.018;20.010;2023-01-26T12:15:49;99160.00;;;0.19;100.00
23899;BME280;20544;50.018;20.010;2023-01-26T12:19:16;99146.98;;;0.06;100.00
23899;BME280;20544;50.018;20.010;2023-01-26T12:22:41;99141.45;;;-0.03;100.00
23899;BME280;20544;50.018;20.010;2023-01-26T12:26:02;99135.61;;;0.07;100.00
23899;BME280;20544;50.018;20.010;2023-01-26T12:29:26;99132.47;;;0.14;100.00
23899;BME280;20544;50.018;20.010;2023-01-26T12:32:55;99126.94;;;0.19;100.00
23899;BME280;20544;50.018;20.010;2023-01-26T12:36:25;99136.95;;;0.25;100.00
23899;BME280;20544;50.018;20.010;2023-01-26T12:39:49;99118.95;;;0.34;100.00
23899;BME280;20544;50.018;20.010;2023-01-26T12:43:15;99118.02;;;0.35;100.00
23899;BME280;20544;50.018;20.010;2023-01-26T12:46:41;99111.75;;;0.37;100.00
23899;BME280;20544;50.018;20.010;2023-01-26T12:50:07;99112.69;;;0.36;100.00
23899;BME280;20544;50.018;20.010;2023-01-26T12:53:53;99113.22;;;0.41;100.00
23899;BME280;20544;50.018;20.010;2023-01-26T12:57:29;99110.43;;;0.19;100.00
23899;BME280;20544;50.018;20.010;2023-01-26T13:00:59;99108.02;;;0.28;100.00
23899;BME280;20544;50.018;20.010;2023-01-26T13:04:23;99104.70;;;0.13;100.00
23899;BME280;20544;50.018;20.010;2023-01-26T13:08:51;99101.47;;;0.23;100.00
23899;BME280;20544;50.018;20.010;2023-01-26T13:12:44;99099.06;;;0.20;100.00
23899;BME280;20544;50.018;20.010;2023-01-26T13:16:35;99091.66;;;0.13;100.00
23899;BME280;20544;50.018;20.010;2023-01-26T13:20:13;99103.14;;;0.24;100.00
23899;BME280;20544;50.018;20.010;2023-01-26T13:23:54;99105.41;;;0.28;100.00
23899;BME280;20544;50.018;20.010;2023-01-26T13:27:30;99099.05;;;0.33;100.00
23899;BME280;20544;50.018;20.010;2023-01-26T13:31:03;99094.92;;;0.04;100.00
23899;BME280;20544;50.018;20.010;2023-01-26T13:34:23;99097.73;;;0.01;100.00
23899;BME280;20544;50.018;20.010;2023-01-26T13:37:45;99099.91;;;0.07;100.00
23899;BME280;20544;50.018;20.010;2023-01-26T13:41:06;99101.16;;;0.14;100.00
23899;BME280;20544;50.018;20.010;2023-01-26T13:44:35;99100.84;;;0.06;100.00
23899;BME280;20544;50.018;20.010;2023-01-26T13:47:55;99108.78;;;0.18;100.00
23899;BME280;20544;50.018;20.010;2023-01-26T13:51:21;99105.75;;;0.24;100.00
23899;BME280;20544;50.018;20.010;2023-01-26T13:54:44;99100.54;;;0.11;100.00
23899;BME280;20544;50.018;20.010;2023-01-26T13:58:17;99108.88;;;0.16;100.00
23899;BME280;20544;50.018;20.010;2023-01-26T14:01:33;99107.23;;;0.15;100.00
23899;BME280;20544;50.018;20.010;2023-01-26T14:04:56;99106.17;;;0.18;100.00
23899;BME280;20544;50.018;20.010;2023-01-26T14:08:16;99102.41;;;0.22;100.00
23899;BME280;20544;50.018;20.010;2023-01-26T14:11:37;99108.36;;;0.24;100.00
23899;BME280;20544;50.018;20.010;2023-01-26T14:14:57;99106.57;;;0.24;100.00
23899;BME280;20544;50.018;20.010;2023-01-26T14:18:21;99104.89;;;0.23;100.00
23899;BME280;20544;50.018;20.010;2023-01-26T14:21:50;99105.83;;;0.22;100.00
23899;BME280;20544;50.018;20.010;2023-01-26T14:25:10;99102.83;;;0.15;100.00
23899;BME280;20544;50.018;20.010;2023-01-26T14:28:35;99103.66;;;0.16;100.00
23899;BME280;20544;50.018;20.010;2023-01-26T14:31:56;99106.17;;;0.18;100.00
23899;BME280;20544;50.018;20.010;2023-01-26T14:35:21;99093.33;;;0.14;100.00
23899;BME280;20544;50.018;20.010;2023-01-26T14:38:44;99100.11;;;0.17;100.00
23899;BME280;20544;50.018;20.010;2023-01-26T14:42:02;99096.80;;;0.15;100.00
23899;BME280;20544;50.018;20.010;2023-01-26T14:45:25;99095.73;;;0.18;100.00
23899;BME280;20544;50.018;20.010;2023-01-26T14:48:51;99104.94;;;0.10;100.00
23899;BME280;20544;50.018;20.010;2023-01-26T14:52:21;99097.30;;;0.07;100.00
23899;BME280;20544;50.018;20.010;2023-01-26T14:55:44;99096.09;;;0.00;100.00
23899;BME280;20544;50.018;20.010;2023-01-26T14:59:05;99089.08;;;0.01;100.00
23899;BME280;20544;50.018;20.010;2023-01-26T15:02:32;99093.67;;;-0.03;100.00
23899;BME280;20544;50.018;20.010;2023-01-26T15:05:55;99090.25;;;-0.04;100.00
23899;BME280;20544;50.018;20.010;2023-01-26T15:09:29;99085.23;;;-0.07;100.00
23899;BME280;20544;50.018;20.010;2023-01-26T15:12:53;99085.11;;;-0.05;100.00
23899;BME280;20544;50.018;20.010;2023-01-26T15:16:15;99085.97;;;-0.05;100.00
23899;BME280;20544;50.018;20.010;2023-01-26T15:19:42;99089.20;;;-0.01;100.00
23899;BME280;20544;50.018;20.010;2023-01-26T15:23:00;99085.11;;;-0.05;100.00
23899;BME280;20544;50.018;20.010;2023-01-26T15:26:24;99088.69;;;-0.06;100.00
23899;BME280;20544;50.018;20.010;2023-01-26T15:29:43;99086.59;;;-0.14;100.00
23899;BME280;20544;50.018;20.010;2023-01-26T15:33:02;99088.38;;;-0.14;100.00
23899;BME280;20544;50.018;20.010;2023-01-26T15:36:33;99088.48;;;-0.16;100.00
23899;BME280;20544;50.018;20.010;2023-01-26T15:39:59;99085.25;;;-0.20;100.00
23899;BME280;20544;50.018;20.010;2023-01-26T15:43:18;99083.47;;;-0.19;100.00
23899;BME280;20544;50.018;20.010;2023-01-26T15:46:35;99083.47;;;-0.19;100.00
23899;BME280;20544;50.018;20.010;2023-01-26T15:49:51;99083.35;;;-0.18;100.00
23899;BME280;20544;50.018;20.010;2023-01-26T15:53:12;99089.30;;;-0.15;100.00
23899;BME280;20544;50.018;20.010;2023-01-26T15:56:30;99090.36;;;-0.18;100.00
23899;BME280;20544;50.018;20.010;2023-01-26T15:59:47;99077.55;;;-0.21;100.00
23899;BME280;20544;50.018;20.010;2023-01-26T16:03:09;99082.64;;;-0.20;100.00
23899;BME280;20544;50.018;20.010;2023-01-26T16:06:26;99076.27;;;-0.15;100.00
23899;BME280;20544;50.018;20.010;2023-01-26T16:09:44;99080.23;;;-0.23;100.00
23899;BME280;20544;50.018;20.010;2023-01-26T16:13:03;99070.55;;;-0.21;100.00
23899;BME280;20544;50.018;20.010;2023-01-26T16:16:23;99078.05;;;-0.16;100.00
23899;BME280;20544;50.018;20.010;2023-01-26T16:19:39;99077.63;;;-0.23;100.00
23899;BME280;20544;50.018;20.010;2023-01-26T16:22:57;99069.80;;;-0.23;100.00
23899;BME280;20544;50.018;20.010;2023-01-26T16:26:15;99080.15;;;-0.21;100.00
23899;BME280;20544;50.018;20.010;2023-01-26T16:29:32;99076.58;;;-0.20;100.00
23899;BME280;20544;50.018;20.010;2023-01-26T16:32:49;99073.89;;;-0.19;100.00
23899;BME280;20544;50.018;20.010;2023-01-26T16:36:07;99073.66;;;-0.15;100.00
23899;BME280;20544;50.018;20.010;2023-01-26T16:39:23;99074.41;;;-0.13;100.00
23899;BME280;20544;50.018;20.010;2023-01-26T16:42:44;99071.98;;;-0.17;100.00
23899;BME280;20544;50.018;20.010;2023-01-26T16:46:01;99072.10;;;-0.18;100.00
23899;BME280;20544;50.018;20.010;2023-01-26T16:49:18;99067.11;;;-0.21;100.00
23899;BME280;20544;50.018;20.010;2023-01-26T16:52:36;99077.55;;;-0.21;100.00
23899;BME280;20544;50.018;20.010;2023-01-26T16:55:53;99067.00;;;-0.20;100.00
23899;BME280;20544;50.018;20.010;2023-01-26T16:59:10;99072.22;;;-0.20;100.00
23899;BME280;20544;50.018;20.010;2023-01-26T17:02:30;99070.73;;;-0.24;100.00
23899;BME280;20544;50.018;20.010;2023-01-26T17:05:48;99066.57;;;-0.26;100.00
23899;BME280;20544;50.018;20.010;2023-01-26T17:09:04;99056.67;;;-0.34;100.00
23899;BME280;20544;50.018;20.010;2023-01-26T17:12:21;99052.40;;;-0.35;100.00
23899;BME280;20544;50.018;20.010;2023-01-26T17:15:37;99056.56;;;-0.33;100.00
23899;BME280;20544;50.018;20.010;2023-01-26T17:18:54;99055.52;;;-0.30;100.00
23899;BME280;20544;50.018;20.010;2023-01-26T17:22:12;99061.78;;;-0.33;100.00
23899;BME280;20544;50.018;20.010;2023-01-26T17:25:28;99061.19;;;-0.36;100.00